KFXE/FXE METAR and TAF weather

Enter ICAO airport designator
Station Type Date Time Source
KFXE METAR 2019/08/26 06:53 UTC NOAA

KFXE 260653Z 00000KT 10SM CLR 27/25 A2994 RMK AO2 SLP140 T02670250


Station Type Date Time Source
KFXE Decoded METAR 2019/08/26 06:53 UTC NOAA

Station name not available
Aug 26, 2019 - 02:53 AM EDT / 2019.08.26 0653 UTC
Wind: Calm:0
Visibility: 10 mile(s):0
Sky conditions: clear
Temperature: 80.1 F (26.7 C)
Dew Point: 77.0 F (25.0 C)
Relative Humidity: 90%
Pressure (altimeter): 29.94 in. Hg (1013 hPa)
ob: KFXE 260653Z 00000KT 10SM CLR 27/25 A2994 RMK AO2 SLP140 T02670250
cycle: 7

Station Type Date Time Source
KFXE TAF 2019/08/26 06:22 UTC NOAA

TAF KFXE 260520Z 2606/2706 VRB04KT P6SM FEW035 SCT060 BKN250
FM261500 24007KT P6SM VCSH SCT030 SCT060 BKN250
FM261700 19010KT P6SM VCTS SCT020CB BKN050 BKN250
FM262200 21008KT P6SM VCSH FEW030 SCT050 BKN250
FM270000 VRB04KT P6SM SCT030 SCT080 BKN250

Example: see airport list